Terminal Aerodrome Forecast
Issued by NWS

Home | Current Version | Previous Version | Text Only | Print | Product List | Glossary On
Versions: 1 2 3 4 5 6 7 8 9 10 11 12 13 14 15
000
FTUS45 KTFX 271139 AAB
TAFBZN
TAF AMD
KBZN 271139Z 2712/2812 03008KT P6SM -SHRASN SCT010 BKN030
      TEMPO 2712/2715 BKN015
     FM271600 29011G19KT P6SM SCT030 BKN050
      TEMPO 2717/2721 -SHRA BKN025
     FM280200 29007KT P6SM OVC050 PROB30 2802/2805 5SM -SHRASN
      BKN030
     FM280600 25005KT P6SM SCT040 BKN060=

USA.gov is the U.S. government's official web portal to all federal, state and local government web resources and services.